Time;durP1;ratioP1;P1;durP2;ratioP2;P2;SDS_P1;SDS_P2;PMS_P1;PMS_P2;Temp;Humidity;BMP_temperature;BMP_pressure;BME280_temperature;BME280_humidity;BME280_pressure;Samples;Min_cycle;Max_cycle;Signal;HPM_P1;HPM_P2
2023/03/18 00:01:02;;;;;;;0.03;0.03;;;;;;;13.61;71.53;100036.75;5024896;28;20100;-47
2023/03/18 00:03:32;;;;;;;0.00;0.00;;;;;;;13.81;70.93;100034.41;5035772;28;20038;-46
2023/03/18 00:06:11;;;;;;;0.32;0.30;;;;;;;13.70;71.99;100029.03;5026248;28;20026;-46
2023/03/18 00:08:39;;;;;;;0.00;0.00;;;;;;;13.69;71.68;100034.81;5024649;28;20599;-52
2023/03/18 00:11:06;;;;;;;0.65;0.50;;;;;;;13.89;71.35;100039.41;5018340;28;20037;-46
2023/03/18 00:13:33;;;;;;;0.28;0.28;;;;;;;13.92;70.74;100035.13;5030533;28;20045;-47
2023/03/18 00:16:03;;;;;;;0.00;0.00;;;;;;;13.76;71.86;100030.19;5017087;28;20029;-54
2023/03/18 00:18:30;;;;;;;0.03;0.03;;;;;;;13.87;70.90;100028.19;5033742;28;20100;-49
2023/03/18 00:20:57;;;;;;;0.10;0.10;;;;;;;13.72;71.72;100024.00;5033934;28;20037;-46
2023/03/18 00:23:23;;;;;;;0.00;0.00;;;;;;;13.73;71.91;100024.75;5028423;28;20065;-47
2023/03/18 00:25:51;;;;;;;0.38;0.38;;;;;;;13.73;72.08;100030.16;5028138;28;20076;-46
2023/03/18 00:28:17;;;;;;;0.03;0.03;;;;;;;13.64;72.89;100016.28;5033776;28;20072;-46
2023/03/18 00:30:42;;;;;;;0.45;0.10;;;;;;;13.74;72.48;100020.91;5032386;28;20073;-46
2023/03/18 00:33:09;;;;;;;0.10;0.10;;;;;;;13.70;72.92;100025.53;5032674;28;20033;-48
2023/03/18 00:35:36;;;;;;;0.15;0.15;;;;;;;13.52;74.02;100022.88;5030682;28;20033;-49
2023/03/18 00:38:03;;;;;;;0.20;0.20;;;;;;;13.56;73.89;100019.00;5036563;28;20029;-48
2023/03/18 00:40:41;;;;;;;0.10;0.10;;;;;;;13.65;73.74;100028.63;5028945;28;20037;-51
2023/03/18 00:43:09;;;;;;;0.10;0.10;;;;;;;13.75;73.59;100028.63;5021705;28;20493;-48
2023/03/18 00:45:39;;;;;;;0.10;0.10;;;;;;;13.71;74.80;100025.16;5014793;28;20057;-46
2023/03/18 00:48:06;;;;;;;0.00;0.00;;;;;;;13.26;76.82;100029.47;5024764;28;20025;-46
2023/03/18 00:50:33;;;;;;;0.77;0.50;;;;;;;13.12;77.92;100026.03;5019427;28;20079;-45
2023/03/18 00:52:59;;;;;;;0.10;0.10;;;;;;;13.14;78.42;100023.69;5030254;28;20021;-46
2023/03/18 00:55:26;;;;;;;0.03;0.03;;;;;;;13.13;78.61;100022.91;5033025;28;20025;-45
2023/03/18 00:57:52;;;;;;;0.10;0.10;;;;;;;13.21;78.76;100042.63;5030725;28;20062;-46
2023/03/18 01:00:18;;;;;;;0.00;0.00;;;;;;;13.33;78.22;100034.91;5028349;28;20021;-46
2023/03/18 01:02:48;;;;;;;0.10;0.10;;;;;;;13.06;79.92;100028.34;5029721;28;20025;-50
2023/03/18 01:05:15;;;;;;;0.75;0.32;;;;;;;12.97;80.05;100033.31;5020625;28;20488;-46
2023/03/18 01:07:41;;;;;;;0.08;0.08;;;;;;;13.08;78.88;100041.47;5010404;28;20065;-52
2023/03/18 01:10:08;;;;;;;0.00;0.00;;;;;;;13.01;79.69;100036.00;5020820;28;20029;-51
2023/03/18 01:12:34;;;;;;;1.48;0.22;;;;;;;13.13;80.22;100043.78;5010549;28;20080;-45
2023/03/18 01:14:59;;;;;;;0.10;0.10;;;;;;;13.16;79.88;100034.91;5008836;28;20469;-46
2023/03/18 01:17:25;;;;;;;0.05;0.05;;;;;;;13.17;80.56;100039.91;5011832;28;20044;-50
2023/03/18 01:19:51;;;;;;;0.08;0.08;;;;;;;13.22;80.19;100038.75;5015074;28;20144;-46
2023/03/18 01:22:17;;;;;;;0.00;0.00;;;;;;;13.08;80.93;100034.13;5029482;28;20029;-45
2023/03/18 01:24:46;;;;;;;0.03;0.03;;;;;;;13.24;80.25;100028.34;5012957;28;20068;-46
2023/03/18 01:27:13;;;;;;;0.10;0.10;;;;;;;13.32;80.44;100038.75;5018567;28;20045;-49
2023/03/18 01:29:40;;;;;;;0.00;0.00;;;;;;;13.21;80.57;100034.50;5027832;28;20441;-52
2023/03/18 01:32:12;;;;;;;0.05;0.05;;;;;;;13.38;80.16;100026.38;5025106;28;20026;-46
2023/03/18 01:34:40;;;;;;;0.20;0.20;;;;;;;13.22;80.54;100028.69;5031819;28;20041;-46
2023/03/18 01:37:06;;;;;;;0.05;0.05;;;;;;;13.33;80.92;100026.00;5041851;28;20026;-48
2023/03/18 01:39:35;;;;;;;0.10;0.10;;;;;;;13.42;80.49;100027.16;5031484;28;20021;-48
2023/03/18 01:42:04;;;;;;;0.00;0.00;;;;;;;13.51;80.04;100029.47;5029428;28;20080;-48
2023/03/18 01:44:31;;;;;;;0.00;0.00;;;;;;;13.58;80.09;100021.31;5043489;28;20032;-52
2023/03/18 01:46:58;;;;;;;0.00;0.00;;;;;;;13.68;79.43;100025.16;5035784;28;20111;-52
2023/03/18 01:49:33;;;;;;;0.00;0.00;;;;;;;13.72;78.72;100029.41;5032173;28;20095;-49
2023/03/18 01:52:15;;;;;;;0.00;0.00;;;;;;;13.72;78.63;100040.22;5036998;28;20115;-46
2023/03/18 01:54:46;;;;;;;0.17;0.17;;;;;;;13.76;78.68;100038.28;5044330;28;20056;-48
2023/03/18 01:57:16;;;;;;;0.00;0.00;;;;;;;13.66;78.85;100036.38;5034904;28;20518;-46
2023/03/18 01:59:44;;;;;;;0.10;0.10;;;;;;;13.49;79.64;100037.94;5043414;28;20055;-46
2023/03/18 02:02:13;;;;;;;0.00;0.00;;;;;;;13.53;79.59;100044.13;5037446;28;20501;-52
2023/03/18 02:04:41;;;;;;;0.10;0.10;;;;;;;13.50;78.72;100042.22;5031566;28;20040;-47
2023/03/18 02:07:18;;;;;;;0.00;0.00;;;;;;;13.65;78.78;100045.66;5026368;28;20025;-49
2023/03/18 02:09:45;;;;;;;0.00;0.00;;;;;;;13.65;78.65;100045.66;5021212;28;20034;-48
2023/03/18 02:12:13;;;;;;;0.00;0.00;;;;;;;13.60;78.72;100046.06;5031707;28;20018;-48
2023/03/18 02:14:39;;;;;;;0.00;0.00;;;;;;;13.61;78.04;100053.00;5023552;28;20486;-46
2023/03/18 02:17:11;;;;;;;0.00;0.00;;;;;;;13.65;78.46;100047.56;5035135;28;20029;-49
2023/03/18 02:20:13;;;;;;;0.13;0.13;;;;;;;13.69;78.49;100049.13;5035938;28;20025;-50
2023/03/18 02:22:59;;;;;;;0.10;0.10;;;;;;;13.73;78.50;100051.81;5041720;28;20562;-49
2023/03/18 02:25:43;;;;;;;0.00;0.00;;;;;;;13.61;79.15;100063.81;5023339;28;20033;-48
2023/03/18 02:28:16;;;;;;;0.10;0.10;;;;;;;13.63;79.94;100056.09;5035137;28;20025;-49
2023/03/18 02:30:46;;;;;;;0.00;0.00;;;;;;;13.69;80.30;100062.66;5030911;28;20042;-49
2023/03/18 02:33:15;;;;;;;1.65;0.20;;;;;;;13.48;81.99;100063.47;5030610;28;20017;-45
2023/03/18 02:35:44;;;;;;;0.00;0.00;;;;;;;13.49;82.14;100070.41;5035821;28;20029;-45
2023/03/18 02:38:10;;;;;;;0.10;0.10;;;;;;;13.43;83.30;100063.09;5031377;28;20133;-52
2023/03/18 02:40:38;;;;;;;0.00;0.00;;;;;;;13.51;82.83;100070.03;5035714;28;20171;-46
2023/03/18 02:43:20;;;;;;;0.00;0.00;;;;;;;13.54;83.10;100066.53;5026877;28;20037;-45
2023/03/18 02:46:05;;;;;;;0.00;0.00;;;;;;;13.40;84.02;100063.84;5018706;28;20040;-46
2023/03/18 02:48:36;;;;;;;0.00;0.00;;;;;;;13.30;84.73;100061.91;5023141;28;20037;-48
2023/03/18 02:51:02;;;;;;;;;;;;;;;13.31;84.87;100060.78;5027383;28;20120;-45
2023/03/18 02:53:28;;;;;;;0.00;0.00;;;;;;;13.40;84.82;100055.72;5043601;28;20004;-45
2023/03/18 02:55:53;;;;;;;0.10;0.10;;;;;;;13.27;85.32;100063.47;5043559;28;20091;-49
2023/03/18 02:58:19;;;;;;;0.15;0.15;;;;;;;13.18;86.19;100059.63;5045861;28;20488;-48
2023/03/18 03:00:46;;;;;;;0.00;0.00;;;;;;;13.18;86.65;100060.38;5033317;28;20029;-52
2023/03/18 03:03:11;;;;;;;0.00;0.00;;;;;;;13.22;87.09;100052.28;5025748;28;20048;-50
2023/03/18 03:05:37;;;;;;;0.00;0.00;;;;;;;13.19;86.20;100053.03;5028102;28;20034;-50
2023/03/18 03:08:04;;;;;;;0.00;0.00;;;;;;;13.08;87.56;100052.28;5010861;28;20033;-48
2023/03/18 03:10:32;;;;;;;0.00;0.00;;;;;;;13.02;88.74;100051.88;5012936;28;20529;-46
2023/03/18 03:12:59;;;;;;;0.10;0.10;;;;;;;13.10;88.33;100052.66;5012762;28;20037;-48
2023/03/18 03:15:25;;;;;;;0.00;0.00;;;;;;;13.05;88.60;100053.81;5012874;28;20431;-45
2023/03/18 03:17:55;;;;;;;0.05;0.05;;;;;;;12.97;89.59;100054.19;5029417;28;20449;-53
2023/03/18 03:20:21;;;;;;;0.00;0.00;;;;;;;13.07;89.63;100061.53;5026600;28;20303;-48
2023/03/18 03:22:47;;;;;;;0.00;0.00;;;;;;;13.08;89.12;100058.47;5017821;28;20125;-49
2023/03/18 03:25:16;;;;;;;0.10;0.10;;;;;;;12.99;89.42;100051.88;5011898;28;20517;-53
2023/03/18 03:27:42;;;;;;;0.08;0.08;;;;;;;12.93;90.15;100059.56;5012436;28;20037;-51
2023/03/18 03:30:11;;;;;;;0.00;0.00;;;;;;;12.86;90.95;100053.38;5015755;28;20036;-49
2023/03/18 03:32:37;;;;;;;0.70;0.70;;;;;;;12.81;91.18;100051.84;5009864;28;20041;-48
2023/03/18 03:35:04;;;;;;;0.10;0.10;;;;;;;12.89;91.43;100058.78;5025508;28;20110;-45
2023/03/18 03:37:29;;;;;;;0.00;0.00;;;;;;;12.89;91.56;100061.47;5017302;28;20387;-48
2023/03/18 03:39:55;;;;;;;0.00;0.00;;;;;;;12.85;91.79;100060.72;5018090;28;20044;-47
2023/03/18 03:42:22;;;;;;;0.00;0.00;;;;;;;12.68;92.51;100062.22;5010687;28;20037;-50
2023/03/18 03:44:47;;;;;;;0.10;0.10;;;;;;;12.59;93.32;100061.06;5025697;28;20188;-45
2023/03/18 03:47:13;;;;;;;1.95;1.23;;;;;;;12.62;93.25;100058.34;5024067;28;20037;-48
2023/03/18 03:49:38;;;;;;;1.98;1.25;;;;;;;12.74;92.80;100072.69;5009159;28;20116;-46
2023/03/18 03:52:05;;;;;;;1.65;1.00;;;;;;;12.67;93.45;100063.41;5026965;28;20472;-49
2023/03/18 03:54:32;;;;;;;1.20;1.08;;;;;;;12.79;93.01;100061.47;5015322;28;20064;-53
2023/03/18 03:57:00;;;;;;;1.77;0.98;;;;;;;12.85;93.10;100058.03;5009634;28;20094;-50
2023/03/18 03:59:26;;;;;;;1.15;0.90;;;;;;;12.72;92.46;100053.38;5033667;28;20428;-53
2023/03/18 04:02:10;;;;;;;1.58;1.23;;;;;;;12.81;92.25;100051.84;5043017;28;20473;-47
2023/03/18 04:04:36;;;;;;;1.88;0.95;;;;;;;12.81;91.97;100046.44;5041201;28;20033;-45
2023/03/18 04:07:02;;;;;;;1.38;0.98;;;;;;;12.93;90.55;100048.75;5039973;28;20122;-46
2023/03/18 04:09:28;;;;;;;1.63;1.20;;;;;;;12.93;90.26;100048.75;5037986;28;20029;-45
2023/03/18 04:11:54;;;;;;;0.70;0.70;;;;;;;12.59;91.98;100045.63;5026689;28;20095;-45
2023/03/18 04:14:19;;;;;;;1.05;0.63;;;;;;;12.64;92.89;100042.53;5013187;28;20048;-49
2023/03/18 04:16:45;;;;;;;2.13;1.10;;;;;;;12.57;93.20;100052.56;5028592;28;20087;-49
2023/03/18 04:19:10;;;;;;;1.48;0.70;;;;;;;12.68;92.41;100062.22;5025593;28;20041;-48
2023/03/18 04:21:36;;;;;;;1.42;0.93;;;;;;;12.66;92.94;100063.75;5029525;28;20021;-50
2023/03/18 04:24:03;;;;;;;1.40;0.82;;;;;;;12.61;93.02;100066.84;5029534;28;20041;-46
2023/03/18 04:26:30;;;;;;;0.93;0.75;;;;;;;12.80;92.22;100071.13;5029130;28;20413;-45
2023/03/18 04:28:59;;;;;;;2.28;0.98;;;;;;;12.83;91.24;100071.16;5025291;28;20403;-45
2023/03/18 04:31:24;;;;;;;0.88;0.50;;;;;;;12.80;91.64;100077.31;5011187;28;20112;-47
2023/03/18 04:33:50;;;;;;;0.50;0.20;;;;;;;12.95;90.53;100075.41;5009735;28;20565;-45
2023/03/18 04:36:15;;;;;;;0.60;0.60;;;;;;;13.00;90.79;100070.41;5015086;28;20021;-48
2023/03/18 04:38:41;;;;;;;7.53;1.05;;;;;;;12.98;90.01;100074.63;5022933;28;20128;-45
2023/03/18 04:41:07;;;;;;;0.40;0.40;;;;;;;12.88;91.07;100062.66;5043255;28;20029;-48
2023/03/18 04:43:33;;;;;;;0.45;0.40;;;;;;;12.91;91.18;100066.53;5028793;28;20033;-50
2023/03/18 04:45:59;;;;;;;4.32;0.52;;;;;;;12.96;91.02;100079.66;5027316;28;20476;-51
2023/03/18 04:48:26;;;;;;;1.35;0.65;;;;;;;12.87;91.02;100066.53;5033281;28;20032;-46
2023/03/18 04:50:54;;;;;;;1.40;0.77;;;;;;;12.80;92.49;100074.59;5017395;28;20037;-48
2023/03/18 04:53:24;;;;;;;1.25;0.90;;;;;;;12.86;91.36;100081.19;5025395;28;20391;-45
2023/03/18 04:55:50;;;;;;;1.70;0.77;;;;;;;12.81;92.38;100080.78;5033514;28;20029;-45
2023/03/18 04:58:18;;;;;;;0.70;0.50;;;;;;;12.73;92.27;100069.19;5030522;28;20025;-45
2023/03/18 05:00:56;;;;;;;0.70;0.70;;;;;;;12.68;91.99;100074.97;5032406;28;20399;-46
2023/03/18 05:03:28;;;;;;;1.95;0.70;;;;;;;12.68;92.57;100072.25;5035190;28;20025;-47
2023/03/18 05:05:55;;;;;;;3.72;0.60;;;;;;;12.72;93.59;100083.09;5037026;28;20044;-45
2023/03/18 05:08:27;;;;;;;0.40;0.32;;;;;;;12.72;93.21;100080.41;5027613;28;20032;-48
2023/03/18 05:10:52;;;;;;;0.32;0.32;;;;;;;12.80;93.06;100092.75;5032975;28;20033;-52
2023/03/18 05:13:19;;;;;;;0.43;0.43;;;;;;;12.64;94.97;100101.19;5033531;28;20033;-50
2023/03/18 05:15:45;;;;;;;1.35;0.65;;;;;;;12.74;94.24;100091.59;5030985;28;20017;-46
2023/03/18 05:18:11;;;;;;;6.78;0.68;;;;;;;12.84;93.46;100101.63;5033557;28;20037;-45
2023/03/18 05:20:38;;;;;;;1.00;0.88;;;;;;;12.73;93.81;100092.72;5033472;28;20068;-47
2023/03/18 05:23:04;;;;;;;2.83;0.82;;;;;;;12.80;92.90;100079.22;5028745;28;20025;-48
2023/03/18 05:25:40;;;;;;;0.80;0.80;;;;;;;12.31;95.97;100071.78;5034501;28;20069;-45
2023/03/18 05:28:07;;;;;;;0.68;0.68;;;;;;;12.27;96.47;100071.75;5016401;28;20030;-45
2023/03/18 05:30:42;;;;;;;1.52;0.88;;;;;;;12.33;96.59;100077.56;5013807;28;20026;-46
2023/03/18 05:33:11;;;;;;;1.58;0.90;;;;;;;12.56;96.75;100094.25;5019585;28;20076;-49
2023/03/18 05:35:45;;;;;;;6.93;2.25;;;;;;;12.63;95.48;100094.25;5014336;28;20037;-45
2023/03/18 05:38:10;;;;;;;1.38;0.73;;;;;;;12.58;96.04;100106.19;5024517;28;20077;-45
2023/03/18 05:40:36;;;;;;;0.80;0.63;;;;;;;12.66;95.95;100098.88;5012341;28;20026;-46
2023/03/18 05:43:17;;;;;;;2.35;0.88;;;;;;;12.53;96.03;100103.09;5025567;28;20092;-45
2023/03/18 05:45:50;;;;;;;1.48;1.33;;;;;;;12.59;95.64;100098.88;5008204;28;20083;-45
2023/03/18 05:48:20;;;;;;;2.28;1.00;;;;;;;12.68;95.90;100101.97;5019783;28;20120;-49
2023/03/18 05:50:51;;;;;;;3.83;0.70;;;;;;;12.53;96.26;100108.50;5007473;28;20026;-45
2023/03/18 05:53:19;;;;;;;4.00;0.90;;;;;;;12.51;96.64;100108.09;5028607;28;20060;-50
2023/03/18 05:55:49;;;;;;;2.47;0.98;;;;;;;12.55;95.94;100117.78;5020714;28;20489;-45
2023/03/18 05:58:16;;;;;;;0.88;0.45;;;;;;;12.54;96.63;100128.97;5019522;28;20071;-51
2023/03/18 06:00:44;;;;;;;2.70;0.90;;;;;;;12.50;96.50;100112.72;5027123;28;20026;-50
2023/03/18 06:03:10;;;;;;;0.60;0.60;;;;;;;12.44;96.69;100116.97;5018875;28;20052;-48
2023/03/18 06:05:35;;;;;;;2.08;1.05;;;;;;;12.52;96.30;100123.16;5030902;28;20470;-46
2023/03/18 06:08:01;;;;;;;1.58;0.90;;;;;;;12.40;97.14;100129.69;5032293;28;20083;-46
2023/03/18 06:10:26;;;;;;;1.75;1.10;;;;;;;12.33;97.70;100124.22;5031012;28;20468;-45
2023/03/18 06:12:54;;;;;;;2.28;1.23;;;;;;;12.54;97.19;100129.72;5032362;28;20033;-48
2023/03/18 06:15:21;;;;;;;3.83;0.95;;;;;;;12.55;96.11;100131.28;5028949;28;20034;-50
2023/03/18 06:17:47;;;;;;;1.75;1.00;;;;;;;12.39;97.32;100128.13;5030154;28;20026;-46
2023/03/18 06:20:14;;;;;;;2.30;1.23;;;;;;;12.47;98.07;100134.31;5032292;28;20117;-47
2023/03/18 06:22:40;;;;;;;5.03;1.08;;;;;;;12.66;96.81;100126.69;5031047;28;20630;-49
2023/03/18 06:25:07;;;;;;;1.20;1.10;;;;;;;12.75;96.47;100122.84;5030181;28;20079;-48
2023/03/18 06:27:36;;;;;;;0.82;0.82;;;;;;;12.70;96.65;100132.09;5030803;28;20044;-49
2023/03/18 06:30:04;;;;;;;2.70;1.33;;;;;;;12.80;96.53;100141.38;5026211;28;20489;-48
2023/03/18 06:32:32;;;;;;;2.97;1.13;;;;;;;12.86;95.32;100143.34;5013079;28;20042;-46
2023/03/18 06:34:58;;;;;;;1.65;0.85;;;;;;;12.56;97.02;100140.91;5011410;28;20498;-45
2023/03/18 06:37:25;;;;;;;1.58;1.15;;;;;;;12.69;96.57;100135.97;5011508;28;20026;-45
2023/03/18 06:39:50;;;;;;;2.85;0.93;;;;;;;12.72;96.60;100147.94;5013414;28;20036;-45
2023/03/18 06:42:16;;;;;;;2.10;0.88;;;;;;;12.70;96.62;100134.78;5025081;28;20026;-45
2023/03/18 06:45:00;;;;;;;2.67;1.15;;;;;;;12.72;97.67;100142.53;5018838;28;20096;-46
2023/03/18 06:47:39;;;;;;;1.17;0.98;;;;;;;12.73;96.73;100144.06;5019099;28;20112;-45
2023/03/18 06:50:05;;;;;;;4.97;0.98;;;;;;;12.64;97.85;100134.38;5035004;28;20044;-45
2023/03/18 06:52:36;;;;;;;4.50;1.10;;;;;;;12.73;97.71;100136.75;5031379;28;20025;-45
2023/03/18 06:55:08;;;;;;;4.63;1.40;;;;;;;12.77;97.91;100136.75;5031204;28;20072;-51
2023/03/18 06:57:37;;;;;;;0.85;0.80;;;;;;;12.79;97.58;100140.63;5032747;28;20025;-46
2023/03/18 07:00:03;;;;;;;4.10;0.98;;;;;;;12.89;97.13;100149.91;5030560;28;20104;-46
2023/03/18 07:02:29;;;;;;;1.50;1.05;;;;;;;13.02;97.08;100157.28;5020198;28;20020;-48
2023/03/18 07:04:58;;;;;;;2.70;1.23;;;;;;;13.09;97.22;100153.84;5024984;28;20488;-46
2023/03/18 07:07:25;;;;;;;2.20;0.90;;;;;;;13.38;95.66;100163.53;5034313;28;20033;-45
2023/03/18 07:09:51;;;;;;;2.42;0.93;;;;;;;13.35;95.87;100178.63;5033747;28;20071;-46
2023/03/18 07:12:18;;;;;;;2.58;0.93;;;;;;;13.34;95.92;100173.56;5033586;28;20040;-45
2023/03/18 07:14:43;;;;;;;2.72;1.17;;;;;;;13.27;96.00;100189.81;5042774;28;20033;-46
2023/03/18 07:17:09;;;;;;;6.57;1.70;;;;;;;13.45;95.70;100188.66;5038146;28;20476;-46
2023/03/18 07:19:35;;;;;;;1.10;0.80;;;;;;;13.43;94.45;100190.97;5030166;28;20064;-52
2023/03/18 07:22:03;;;;;;;2.50;1.15;;;;;;;13.44;95.42;100189.03;5037505;28;20025;-48
2023/03/18 07:24:30;;;;;;;2.90;1.25;;;;;;;13.49;95.32;100194.09;5030132;28;20029;-51
2023/03/18 07:26:57;;;;;;;5.07;1.50;;;;;;;13.48;94.80;100189.81;5029958;28;20056;-46
2023/03/18 07:29:23;;;;;;;2.45;1.13;;;;;;;13.28;95.55;100194.81;5030580;28;20029;-49
2023/03/18 07:31:48;;;;;;;1.38;0.88;;;;;;;13.46;95.49;100190.22;5021014;28;20504;-46
2023/03/18 07:34:16;;;;;;;2.90;0.95;;;;;;;13.48;95.34;100200.66;5022024;28;20443;-45
2023/03/18 07:36:42;;;;;;;2.60;1.35;;;;;;;13.62;94.74;100206.09;5024861;28;20021;-47
2023/03/18 07:39:09;;;;;;;2.53;1.80;;;;;;;13.64;95.38;100192.94;5021213;28;20033;-50
2023/03/18 07:41:35;;;;;;;2.97;1.33;;;;;;;13.88;94.53;100192.16;5034258;28;20037;-46
2023/03/18 07:44:02;;;;;;;2.42;1.00;;;;;;;14.06;94.72;100203.75;5031312;28;20030;-45
2023/03/18 07:46:27;;;;;;;1.20;0.80;;;;;;;14.23;94.62;100208.34;5029143;28;20033;-50
2023/03/18 07:48:53;;;;;;;3.55;1.17;;;;;;;14.48;92.79;100212.97;5033206;28;20091;-45
2023/03/18 07:51:18;;;;;;;3.40;1.10;;;;;;;14.45;93.39;100219.94;5031158;28;20048;-48
2023/03/18 07:53:44;;;;;;;2.40;1.23;;;;;;;14.44;92.55;100231.94;5032495;28;20128;-48
2023/03/18 07:56:09;;;;;;;2.53;1.45;;;;;;;14.61;92.28;100222.22;5034129;28;20451;-46
2023/03/18 07:58:36;;;;;;;4.15;1.13;;;;;;;14.40;91.77;100221.09;5031738;28;20022;-46
2023/03/18 08:01:01;;;;;;;1.58;0.90;;;;;;;14.39;91.87;100219.56;5031057;28;20033;-46
2023/03/18 08:03:27;;;;;;;1.30;0.73;;;;;;;14.47;91.04;100220.34;5015704;28;20045;-48
2023/03/18 08:05:53;;;;;;;6.43;1.90;;;;;;;14.52;90.68;100227.28;5024507;28;20104;-46
2023/03/18 08:08:19;;;;;;;3.15;1.42;;;;;;;14.53;90.28;100228.84;5037322;28;20056;-45
2023/03/18 08:10:44;;;;;;;0.98;0.63;;;;;;;14.41;90.66;100232.72;5029012;28;20448;-52
2023/03/18 08:13:11;;;;;;;2.70;1.42;;;;;;;14.41;90.20;100236.22;5030703;28;20083;-49
2023/03/18 08:15:37;;;;;;;1.70;0.82;;;;;;;14.49;88.98;100231.56;5030520;28;20025;-46
2023/03/18 08:18:03;;;;;;;0.60;0.60;;;;;;;14.37;90.20;100238.16;5037140;28;20073;-51
2023/03/18 08:20:29;;;;;;;1.45;1.15;;;;;;;14.39;89.88;100240.47;5033116;28;20040;-53
2023/03/18 08:22:54;;;;;;;1.40;0.52;;;;;;;14.26;90.45;100242.81;5037381;28;20391;-46
2023/03/18 08:25:21;;;;;;;4.25;1.35;;;;;;;14.34;89.97;100246.31;5037233;28;20036;-47
2023/03/18 08:27:47;;;;;;;2.42;1.42;;;;;;;14.34;90.02;100241.63;5029335;28;20042;-52
2023/03/18 08:30:13;;;;;;;2.65;1.42;;;;;;;14.27;90.20;100249.78;5025939;28;20060;-46
2023/03/18 08:32:39;;;;;;;4.13;1.00;;;;;;;14.08;91.35;100247.44;5025471;28;20036;-50
2023/03/18 08:35:06;;;;;;;1.40;1.10;;;;;;;14.25;90.80;100241.25;5029506;28;20026;-46
2023/03/18 08:37:32;;;;;;;2.80;1.30;;;;;;;14.32;90.62;100259.47;5022024;28;20029;-51
2023/03/18 08:39:58;;;;;;;1.38;0.93;;;;;;;14.42;90.10;100256.72;5028748;28;20044;-49
2023/03/18 08:42:23;;;;;;;1.80;0.95;;;;;;;14.44;90.22;100259.03;5029715;28;20025;-52
2023/03/18 08:44:49;;;;;;;0.40;0.40;;;;;;;14.51;90.23;100258.25;5026795;28;20404;-49
2023/03/18 08:47:15;;;;;;;1.80;1.30;;;;;;;14.47;90.55;100263.69;5026071;28;20037;-46
2023/03/18 08:49:40;;;;;;;1.80;1.05;;;;;;;14.49;89.78;100269.50;5028762;28;20477;-46
2023/03/18 08:52:06;;;;;;;1.30;0.65;;;;;;;14.48;90.28;100278.00;5030194;28;20037;-46
2023/03/18 08:54:31;;;;;;;2.63;1.20;;;;;;;14.55;89.83;100272.56;5027642;28;20041;-49
2023/03/18 08:56:58;;;;;;;2.83;1.50;;;;;;;14.56;89.43;100274.88;5025674;28;20056;-46
2023/03/18 08:59:23;;;;;;;4.28;1.00;;;;;;;14.62;89.44;100283.38;5029974;28;20033;-48
2023/03/18 09:01:49;;;;;;;1.65;1.40;;;;;;;14.55;89.56;100276.06;5014676;28;20038;-48
2023/03/18 09:04:15;;;;;;;2.72;1.58;;;;;;;14.55;90.00;100286.91;5029292;28;20021;-47
2023/03/18 09:06:41;;;;;;;2.92;1.10;;;;;;;14.56;89.92;100282.22;5016493;28;20121;-45
2023/03/18 09:09:07;;;;;;;2.15;0.82;;;;;;;14.31;91.14;100285.78;5027871;28;20026;-48
2023/03/18 09:11:33;;;;;;;1.60;0.80;;;;;;;14.42;90.81;100281.09;5030248;28;20500;-49
2023/03/18 09:13:59;;;;;;;2.80;1.17;;;;;;;14.50;90.33;100297.38;5016707;28;20044;-53
2023/03/18 09:16:24;;;;;;;5.32;1.27;;;;;;;14.48;90.61;100293.09;5020223;28;20029;-48
2023/03/18 09:18:50;;;;;;;2.15;1.10;;;;;;;14.57;90.01;100291.94;5029624;28;20162;-50
2023/03/18 09:21:16;;;;;;;3.47;1.10;;;;;;;14.56;89.68;100291.16;5030626;28;20037;-47
2023/03/18 09:23:42;;;;;;;1.80;0.70;;;;;;;14.48;90.09;100309.34;5025416;28;20052;-48
2023/03/18 09:26:07;;;;;;;1.98;1.02;;;;;;;14.49;89.76;100304.72;5028496;28;20026;-52
2023/03/18 09:28:33;;;;;;;1.77;1.10;;;;;;;14.48;89.55;100306.66;5030225;28;20070;-45
2023/03/18 09:30:58;;;;;;;2.63;0.80;;;;;;;14.46;89.66;100305.47;5028717;28;20045;-46
2023/03/18 09:33:24;;;;;;;2.22;1.10;;;;;;;14.50;89.40;100317.09;5014149;28;20021;-49
2023/03/18 09:35:49;;;;;;;1.05;0.68;;;;;;;14.45;89.67;100312.84;5023375;28;20490;-54
2023/03/18 09:38:18;;;;;;;2.00;0.82;;;;;;;14.51;89.69;100315.94;5031278;28;20054;-46
2023/03/18 09:41:09;;;;;;;2.78;1.13;;;;;;;14.49;89.68;100331.81;5041511;28;20029;-46
2023/03/18 09:43:46;;;;;;;2.28;1.10;;;;;;;14.58;89.39;100334.09;5027154;28;20123;-46
2023/03/18 09:46:23;;;;;;;2.05;1.02;;;;;;;14.41;90.56;100322.91;5043829;28;20041;-46
2023/03/18 09:49:08;;;;;;;2.75;1.30;;;;;;;14.45;90.97;100337.25;5023698;28;20037;-46
2023/03/18 09:51:42;;;;;;;1.00;0.90;;;;;;;14.52;91.24;100330.28;5032037;28;20033;-53
2023/03/18 09:54:15;;;;;;;3.25;1.42;;;;;;;14.54;91.38;100327.94;5025804;28;20048;-49
2023/03/18 09:56:42;;;;;;;1.95;0.88;;;;;;;14.64;91.32;100335.25;5030839;28;20048;-49
2023/03/18 09:59:18;;;;;;;4.13;1.63;;;;;;;14.65;91.28;100339.53;5019456;28;20017;-46
2023/03/18 10:01:47;;;;;;;3.72;1.42;;;;;;;14.68;91.23;100330.63;5035424;28;20033;-45
2023/03/18 10:04:23;;;;;;;3.10;0.98;;;;;;;14.77;90.68;100334.47;5038029;28;20104;-49
2023/03/18 10:06:59;;;;;;;3.45;1.35;;;;;;;14.73;91.00;100332.94;5033577;28;20038;-49
2023/03/18 10:09:38;;;;;;;1.13;0.90;;;;;;;14.79;91.34;100336.81;5019407;28;20082;-45
2023/03/18 10:12:15;;;;;;;2.45;1.13;;;;;;;14.94;90.76;100346.47;5034866;28;20044;-47
2023/03/18 10:15:20;;;;;;;1.02;0.73;;;;;;;15.06;90.70;100338.66;5024362;28;20038;-45
2023/03/18 10:17:54;;;;;;;1.77;1.17;;;;;;;15.42;91.55;100341.28;5029300;28;20046;-48
2023/03/18 10:20:43;;;;;;;2.03;1.08;;;;;;;16.16;89.24;100334.22;5040042;28;20033;-47
2023/03/18 10:23:36;;;;;;;1.50;1.40;;;;;;;16.44;87.17;100349.53;5040362;28;20036;-47
2023/03/18 10:26:14;;;;;;;0.40;0.40;;;;;;;16.41;86.58;100349.56;5029838;28;20034;-52
2023/03/18 10:28:48;;;;;;;1.48;0.80;;;;;;;16.78;85.32;100352.38;5027672;28;20073;-53
2023/03/18 10:31:41;;;;;;;1.45;0.80;;;;;;;16.87;83.93;100358.09;5021501;28;20037;-51
2023/03/18 10:34:21;;;;;;;1.30;0.73;;;;;;;17.03;82.28;100364.50;5014087;28;20492;-49
2023/03/18 10:37:15;;;;;;;1.40;0.73;;;;;;;16.88;81.51;100371.28;5024801;28;20034;-49
2023/03/18 10:39:41;;;;;;;1.20;0.60;;;;;;;16.86;80.82;100375.59;5013353;28;20082;-49
2023/03/18 10:42:29;;;;;;;1.67;0.70;;;;;;;16.76;81.00;100371.03;5020105;28;20060;-49
2023/03/18 10:45:07;;;;;;;0.75;0.43;;;;;;;16.67;81.89;100368.00;5039320;28;20033;-51
2023/03/18 10:47:39;;;;;;;1.30;0.73;;;;;;;16.60;81.82;100365.34;5048516;28;20518;-50
2023/03/18 10:50:21;;;;;;;1.67;0.73;;;;;;;16.60;81.89;100370.78;5029053;28;20041;-50
2023/03/18 10:52:57;;;;;;;;;;;;;;;16.62;81.03;100371.16;5042925;28;20037;-50
2023/03/18 10:55:33;;;;;;;0.63;0.43;;;;;;;16.52;81.53;100372.00;5029842;28;19992;-49
2023/03/18 10:58:00;;;;;;;1.45;0.60;;;;;;;16.52;81.29;100366.56;5023523;28;20052;-50
2023/03/18 11:00:31;;;;;;;1.15;0.90;;;;;;;16.35;82.48;100372.91;5035170;28;20408;-50
2023/03/18 11:02:58;;;;;;;2.28;0.57;;;;;;;16.24;82.76;100371.03;5047212;28;20029;-45
2023/03/18 11:05:33;;;;;;;1.15;0.50;;;;;;;16.14;84.02;100369.16;5030200;28;20033;-48
2023/03/18 11:08:00;;;;;;;1.88;0.70;;;;;;;16.19;83.82;100368.75;5021072;28;20057;-47
2023/03/18 11:10:32;;;;;;;1.60;0.80;;;;;;;16.20;84.78;100366.81;5031293;28;20075;-48
2023/03/18 11:13:01;;;;;;;0.95;0.50;;;;;;;16.48;83.46;100371.25;5038146;28;20040;-49
2023/03/18 11:15:28;;;;;;;2.35;0.68;;;;;;;16.62;81.73;100365.72;5028381;28;20496;-49
2023/03/18 11:17:59;;;;;;;1.00;0.57;;;;;;;16.67;82.50;100370.72;5032516;28;20063;-50
2023/03/18 11:20:43;;;;;;;1.98;1.08;;;;;;;16.79;82.14;100376.44;5036030;28;20416;-51
2023/03/18 11:26:23;;;;;;;1.27;1.13;;;;;;;17.48;78.77;100378.81;5038326;28;20114;-50
2023/03/18 11:28:55;;;;;;;2.20;1.02;;;;;;;17.77;77.50;100371.81;5020140;28;20074;-47
2023/03/18 11:31:20;;;;;;;2.17;1.20;;;;;;;17.79;76.02;100374.91;5017329;28;20050;-50
2023/03/18 11:33:46;;;;;;;2.08;0.80;;;;;;;18.06;74.45;100377.63;5032574;28;20025;-51
2023/03/18 11:36:22;;;;;;;0.90;0.77;;;;;;;18.24;74.12;100380.09;5019522;28;20046;-51
2023/03/18 11:39:13;;;;;;;1.77;0.93;;;;;;;18.42;74.97;100377.88;5018113;28;20051;-50